createdAt,value
2018-05-27T00:01:10.058Z,0.00
2018-05-27T00:01:49.048Z,0.00
2018-05-27T00:02:49.045Z,0.00
2018-05-27T00:04:10.041Z,0.00
2018-05-27T00:04:49.033Z,0.00
2018-05-27T00:06:10.032Z,0.00
2018-05-27T00:06:49.021Z,0.00
2018-05-27T00:07:49.015Z,0.00
2018-05-27T00:09:10.015Z,0.00
2018-05-27T00:09:49.006Z,0.00
2018-05-27T00:11:10.013Z,0.00
2018-05-27T00:11:48.989Z,0.00
2018-05-27T00:12:48.989Z,0.00
2018-05-27T00:14:09.990Z,0.00
2018-05-27T00:14:48.987Z,0.00
2018-05-27T00:16:09.976Z,0.00
2018-05-27T00:16:48.962Z,0.00
2018-05-27T00:17:48.954Z,0.00
2018-05-27T00:19:09.960Z,0.00
2018-05-27T00:19:48.950Z,0.00
2018-05-27T00:21:09.953Z,0.00
2018-05-27T00:21:48.938Z,0.00
2018-05-27T00:22:48.935Z,0.00
2018-05-27T00:24:09.933Z,0.00
2018-05-27T00:24:48.921Z,0.00
2018-05-27T00:26:09.920Z,0.00
2018-05-27T00:26:48.914Z,0.00
2018-05-27T00:27:48.909Z,0.00
2018-05-27T00:29:09.905Z,0.00
2018-05-27T00:29:48.892Z,0.00
2018-05-27T00:31:09.894Z,0.00
2018-05-27T00:31:48.885Z,0.00
2018-05-27T00:32:48.873Z,0.00
2018-05-27T00:34:09.878Z,0.00
2018-05-27T00:34:48.866Z,0.00
2018-05-27T00:36:09.865Z,0.00
2018-05-27T00:36:48.892Z,0.00
2018-05-27T00:37:48.846Z,0.00
2018-05-27T00:39:09.852Z,0.00
2018-05-27T00:39:48.848Z,0.00
2018-05-27T00:41:09.836Z,0.00
2018-05-27T00:41:48.827Z,0.00
2018-05-27T00:42:48.825Z,0.00
2018-05-27T00:44:09.862Z,0.00
2018-05-27T00:44:48.813Z,0.00
2018-05-27T00:46:09.814Z,0.00
2018-05-27T00:46:48.802Z,0.00
2018-05-27T00:47:48.795Z,0.00
2018-05-27T00:49:09.792Z,0.00
2018-05-27T00:49:48.812Z,0.00
2018-05-27T00:51:09.788Z,0.00
2018-05-27T00:51:48.768Z,0.00
2018-05-27T00:52:48.769Z,0.00
2018-05-27T00:54:09.766Z,0.00
2018-05-27T00:54:48.756Z,0.00
2018-05-27T00:56:09.762Z,0.00
2018-05-27T00:56:48.747Z,0.00
2018-05-27T00:57:48.739Z,0.00
2018-05-27T00:59:09.738Z,0.00
2018-05-27T00:59:48.724Z,0.00
2018-05-27T01:01:09.730Z,0.00
2018-05-27T01:01:48.715Z,0.00
2018-05-27T01:02:48.712Z,0.00
2018-05-27T01:04:09.709Z,0.00
2018-05-27T01:04:48.721Z,0.00
2018-05-27T01:06:09.700Z,0.00
2018-05-27T01:06:48.692Z,0.00
2018-05-27T01:07:48.683Z,0.00
2018-05-27T01:09:09.685Z,0.00
2018-05-27T01:09:48.671Z,0.00
2018-05-27T01:11:09.675Z,0.00
2018-05-27T01:11:48.660Z,0.00
2018-05-27T01:12:48.661Z,0.00
2018-05-27T01:14:09.660Z,0.00
2018-05-27T01:14:48.648Z,0.00
2018-05-27T01:16:09.649Z,0.00
2018-05-27T01:16:48.633Z,0.00
2018-05-27T01:17:48.628Z,0.00
2018-05-27T01:19:09.637Z,0.00
2018-05-27T01:19:48.624Z,0.00
2018-05-27T01:21:09.618Z,0.00
2018-05-27T01:21:48.612Z,0.00
2018-05-27T01:22:48.601Z,0.00
2018-05-27T01:24:09.603Z,0.00
2018-05-27T01:24:48.585Z,0.00
2018-05-27T01:26:09.588Z,0.00
2018-05-27T01:26:48.582Z,0.00
2018-05-27T01:27:48.574Z,0.00
2018-05-27T01:29:09.575Z,0.00
2018-05-27T01:29:48.563Z,0.00
2018-05-27T01:31:09.561Z,0.00
2018-05-27T01:31:48.558Z,0.00
2018-05-27T01:32:48.550Z,0.00
2018-05-27T01:34:09.549Z,0.00
2018-05-27T01:34:48.536Z,0.00
2018-05-27T01:36:09.537Z,0.00
2018-05-27T01:36:48.532Z,0.00
2018-05-27T01:37:48.515Z,0.00
2018-05-27T01:39:09.517Z,0.00
2018-05-27T01:39:48.508Z,0.00
2018-05-27T01:41:09.507Z,0.00
2018-05-27T01:41:48.501Z,0.00
2018-05-27T01:42:48.495Z,0.00
2018-05-27T01:44:09.493Z,0.00
2018-05-27T01:44:48.481Z,0.00
2018-05-27T01:46:09.485Z,0.00
2018-05-27T01:46:48.473Z,0.00
2018-05-27T01:47:48.461Z,0.00
2018-05-27T01:49:09.465Z,0.00
2018-05-27T01:49:48.453Z,0.00
2018-05-27T01:51:09.453Z,0.00
2018-05-27T01:51:48.445Z,0.00
2018-05-27T01:52:48.440Z,0.00
2018-05-27T01:54:09.436Z,0.00
2018-05-27T01:54:48.425Z,0.00
2018-05-27T01:56:09.426Z,0.00
2018-05-27T01:56:48.417Z,0.00
2018-05-27T01:57:48.414Z,0.00
2018-05-27T01:59:09.410Z,0.00
2018-05-27T01:59:48.396Z,0.00
2018-05-27T02:01:09.402Z,0.00
2018-05-27T02:01:48.390Z,0.00
2018-05-27T02:02:48.378Z,0.00
2018-05-27T02:04:09.380Z,0.00
2018-05-27T02:04:48.367Z,0.00
2018-05-27T02:06:09.370Z,0.00
2018-05-27T02:06:48.356Z,0.00
2018-05-27T02:07:48.349Z,0.00
2018-05-27T02:09:09.354Z,0.00
2018-05-27T02:09:48.340Z,0.00
2018-05-27T02:11:09.342Z,0.00
2018-05-27T02:11:48.334Z,0.00
2018-05-27T02:12:48.330Z,0.00
2018-05-27T02:14:09.327Z,0.00
2018-05-27T02:14:48.319Z,0.00
2018-05-27T02:16:09.316Z,0.00
2018-05-27T02:16:48.305Z,0.00
2018-05-27T02:17:48.298Z,0.00
2018-05-27T02:19:09.301Z,0.00
2018-05-27T02:19:48.288Z,0.00
2018-05-27T02:21:09.286Z,0.00
2018-05-27T02:21:48.274Z,0.00
2018-05-27T02:22:48.276Z,0.00
2018-05-27T02:24:09.268Z,0.00
2018-05-27T02:24:48.257Z,0.00
2018-05-27T02:26:09.259Z,0.00
2018-05-27T02:26:48.249Z,0.00
2018-05-27T02:27:48.244Z,0.00
2018-05-27T02:29:09.242Z,0.00
2018-05-27T02:29:48.234Z,0.00
2018-05-27T02:31:09.237Z,0.00
2018-05-27T02:31:48.220Z,0.00
2018-05-27T02:32:48.218Z,0.00
2018-05-27T02:34:09.216Z,0.00
2018-05-27T02:34:48.200Z,0.00
2018-05-27T02:36:09.206Z,0.00
2018-05-27T02:36:48.199Z,0.00
2018-05-27T02:37:48.189Z,0.00
2018-05-27T02:39:09.194Z,0.00
2018-05-27T02:39:48.181Z,0.00
2018-05-27T02:41:09.177Z,0.00
2018-05-27T02:41:48.171Z,0.00
2018-05-27T02:42:48.161Z,0.00
2018-05-27T02:44:09.163Z,0.00
2018-05-27T02:44:48.150Z,0.00
2018-05-27T02:46:09.153Z,0.00
2018-05-27T02:46:48.136Z,0.00
2018-05-27T02:47:48.132Z,0.00
2018-05-27T02:49:09.128Z,0.00
2018-05-27T02:49:48.120Z,0.00
2018-05-27T02:51:09.121Z,0.00
2018-05-27T02:51:48.109Z,0.00
2018-05-27T02:52:48.107Z,0.00
2018-05-27T02:54:09.109Z,0.00
2018-05-27T02:54:48.094Z,0.00
2018-05-27T02:56:09.095Z,0.00
2018-05-27T02:56:48.084Z,0.00
2018-05-27T02:57:48.104Z,0.00
2018-05-27T02:59:09.078Z,0.00
2018-05-27T02:59:48.067Z,0.00
2018-05-27T03:01:09.065Z,0.00
2018-05-27T03:01:48.068Z,0.00
2018-05-27T03:02:48.047Z,0.00
2018-05-27T03:04:09.048Z,0.00
2018-05-27T03:04:48.039Z,0.00
2018-05-27T03:06:09.044Z,0.00
2018-05-27T03:06:48.023Z,0.00
2018-05-27T03:07:48.021Z,0.00
2018-05-27T03:09:09.018Z,0.00
2018-05-27T03:09:48.013Z,0.00
2018-05-27T03:11:09.011Z,0.00
2018-05-27T03:11:47.999Z,0.00
2018-05-27T03:12:47.993Z,0.00
2018-05-27T03:14:09.000Z,0.00
2018-05-27T03:14:47.982Z,0.00
2018-05-27T03:16:08.981Z,0.00
2018-05-27T03:16:47.968Z,0.00
2018-05-27T03:17:47.966Z,0.00
2018-05-27T03:19:08.968Z,0.00
2018-05-27T03:19:47.951Z,0.00
2018-05-27T03:21:08.952Z,0.00
2018-05-27T03:21:47.944Z,0.00
2018-05-27T03:22:47.934Z,0.00
2018-05-27T03:24:08.936Z,0.00
2018-05-27T03:24:47.931Z,0.00
2018-05-27T03:26:08.930Z,0.00
2018-05-27T03:26:47.917Z,0.00
2018-05-27T03:27:47.906Z,0.00
2018-05-27T03:29:08.907Z,0.00
2018-05-27T03:29:47.902Z,0.00
2018-05-27T03:31:08.906Z,0.00
2018-05-27T03:31:47.888Z,0.00
2018-05-27T03:32:47.889Z,0.00
2018-05-27T03:34:08.882Z,0.00
2018-05-27T03:34:47.869Z,0.00
2018-05-27T03:36:08.870Z,0.00
2018-05-27T03:36:47.853Z,0.00
2018-05-27T03:37:47.855Z,0.00
2018-05-27T03:39:08.855Z,0.00
2018-05-27T03:39:47.839Z,0.00
2018-05-27T03:41:08.849Z,0.00
2018-05-27T03:41:47.841Z,0.00
2018-05-27T03:42:47.825Z,0.00
2018-05-27T03:44:08.835Z,0.00
2018-05-27T03:44:47.815Z,0.00
2018-05-27T03:46:08.819Z,0.00
2018-05-27T03:46:47.804Z,0.00
2018-05-27T03:47:47.795Z,0.00
2018-05-27T03:49:08.796Z,0.00
2018-05-27T03:49:47.794Z,0.00
2018-05-27T03:51:08.794Z,0.00
2018-05-27T03:51:47.770Z,0.00
2018-05-27T03:52:47.767Z,0.00
2018-05-27T03:54:08.776Z,0.00
2018-05-27T03:54:47.760Z,0.00
2018-05-27T03:56:08.756Z,0.00
2018-05-27T03:56:47.742Z,0.00
2018-05-27T03:57:47.741Z,0.00
2018-05-27T03:59:08.745Z,0.00
2018-05-27T03:59:47.732Z,0.00
2018-05-27T04:01:08.724Z,0.00
2018-05-27T04:01:47.716Z,0.00
2018-05-27T04:02:47.712Z,0.00
2018-05-27T04:04:08.715Z,0.00
2018-05-27T04:04:47.701Z,0.00
2018-05-27T04:06:08.704Z,0.00
2018-05-27T04:06:47.687Z,0.00
2018-05-27T04:07:47.683Z,0.00
2018-05-27T04:09:08.686Z,0.00
2018-05-27T04:09:47.672Z,0.00
2018-05-27T04:11:08.672Z,0.00
2018-05-27T04:11:47.667Z,0.00
2018-05-27T04:12:47.659Z,0.00
2018-05-27T04:14:08.658Z,0.00
2018-05-27T04:14:47.644Z,0.00
2018-05-27T04:16:08.645Z,0.00
2018-05-27T04:16:47.634Z,0.00
2018-05-27T04:17:47.629Z,0.00
2018-05-27T04:19:08.629Z,0.00
2018-05-27T04:19:47.619Z,0.00
2018-05-27T04:21:08.614Z,0.00
2018-05-27T04:21:47.603Z,0.00
2018-05-27T04:22:47.601Z,0.00
2018-05-27T04:24:08.598Z,0.00
2018-05-27T04:24:47.594Z,0.00
2018-05-27T04:26:08.589Z,0.00
2018-05-27T04:26:47.575Z,0.00
2018-05-27T04:27:47.569Z,0.00
2018-05-27T04:29:08.567Z,0.00
2018-05-27T04:29:47.562Z,0.00
2018-05-27T04:31:08.562Z,0.00
2018-05-27T04:31:47.548Z,0.00
2018-05-27T04:32:47.548Z,0.00
2018-05-27T04:34:08.547Z,0.00
2018-05-27T04:34:47.535Z,0.00
2018-05-27T04:36:08.536Z,0.00
2018-05-27T04:36:47.519Z,0.00
2018-05-27T04:37:47.516Z,0.00
2018-05-27T04:39:08.515Z,0.00
2018-05-27T04:39:47.503Z,0.00
2018-05-27T04:41:08.502Z,0.00
2018-05-27T04:41:47.489Z,0.00
2018-05-27T04:42:47.484Z,0.00
2018-05-27T04:44:08.483Z,0.00
2018-05-27T04:44:47.477Z,0.00
2018-05-27T04:46:08.475Z,0.00
2018-05-27T04:46:47.471Z,0.00
2018-05-27T04:47:47.461Z,0.00
2018-05-27T04:49:08.460Z,0.00
2018-05-27T04:49:47.443Z,0.00
2018-05-27T04:51:08.443Z,0.00
2018-05-27T04:51:47.436Z,0.00
2018-05-27T04:52:47.432Z,0.00
2018-05-27T04:54:08.432Z,0.00
2018-05-27T04:54:47.420Z,0.00
2018-05-27T04:56:08.420Z,0.00
2018-05-27T04:56:47.409Z,0.00
2018-05-27T04:57:47.403Z,0.00
2018-05-27T04:59:08.454Z,0.00
2018-05-27T04:59:47.388Z,0.00
2018-05-27T05:01:08.390Z,0.00
2018-05-27T05:01:47.380Z,0.00
2018-05-27T05:02:47.374Z,0.00
2018-05-27T05:04:08.373Z,0.00
2018-05-27T05:04:47.379Z,0.00
2018-05-27T05:06:08.366Z,0.00
2018-05-27T05:06:47.347Z,0.00
2018-05-27T05:07:47.387Z,0.00
2018-05-27T05:09:08.350Z,0.00
2018-05-27T05:09:47.333Z,0.00
2018-05-27T05:11:08.332Z,0.00
2018-05-27T05:11:47.322Z,0.00
2018-05-27T05:12:47.316Z,0.00
2018-05-27T05:14:08.323Z,0.00
2018-05-27T05:14:47.306Z,0.00
2018-05-27T05:16:08.301Z,0.00
2018-05-27T05:16:47.293Z,0.00
2018-05-27T05:17:47.288Z,0.00
2018-05-27T05:19:08.296Z,0.00
2018-05-27T05:19:47.286Z,0.00
2018-05-27T05:21:08.283Z,0.00
2018-05-27T05:21:47.314Z,0.00
2018-05-27T05:22:47.263Z,0.00
2018-05-27T05:24:08.261Z,0.00
2018-05-27T05:24:47.250Z,0.00
2018-05-27T05:26:08.252Z,0.00
2018-05-27T05:26:47.240Z,0.00
2018-05-27T05:27:47.237Z,0.00
2018-05-27T05:29:08.237Z,0.00
2018-05-27T05:29:47.218Z,0.00
2018-05-27T05:31:08.226Z,0.00
2018-05-27T05:31:47.217Z,0.00
2018-05-27T05:32:47.202Z,0.00
2018-05-27T05:34:08.207Z,0.00
2018-05-27T05:34:47.194Z,0.00
2018-05-27T05:36:08.188Z,0.00
2018-05-27T05:36:47.183Z,0.00
2018-05-27T05:37:47.172Z,0.00
2018-05-27T05:39:08.180Z,5.63
2018-05-27T05:39:47.165Z,5.63
2018-05-27T05:41:08.163Z,5.63
2018-05-27T05:41:47.152Z,5.63
2018-05-27T05:42:47.147Z,5.63
2018-05-27T05:44:08.149Z,5.63
2018-05-27T05:44:47.137Z,5.63
2018-05-27T05:46:08.134Z,5.63
2018-05-27T05:46:47.122Z,5.63
2018-05-27T05:47:47.124Z,5.63
2018-05-27T05:49:08.126Z,5.63
2018-05-27T05:49:47.111Z,5.63
2018-05-27T05:51:08.109Z,5.63
2018-05-27T05:51:47.106Z,5.63
2018-05-27T05:52:47.089Z,5.63
2018-05-27T05:54:08.093Z,5.63
2018-05-27T05:54:47.083Z,5.63
2018-05-27T05:56:08.080Z,5.63
2018-05-27T05:56:47.070Z,5.63
2018-05-27T05:57:47.066Z,5.63
2018-05-27T05:59:08.069Z,5.63
2018-05-27T05:59:47.057Z,5.63
2018-05-27T06:01:08.066Z,5.63
2018-05-27T06:01:47.046Z,5.63
2018-05-27T06:02:47.041Z,5.63
2018-05-27T06:04:08.037Z,5.63
2018-05-27T06:04:47.027Z,5.63
2018-05-27T06:06:08.024Z,11.25
2018-05-27T06:06:47.014Z,11.25
2018-05-27T06:07:47.006Z,11.25
2018-05-27T06:09:08.003Z,11.25
2018-05-27T06:09:46.999Z,11.25
2018-05-27T06:11:07.994Z,11.25
2018-05-27T06:11:46.985Z,22.50
2018-05-27T06:12:46.979Z,22.50
2018-05-27T06:14:07.978Z,22.50
2018-05-27T06:14:46.976Z,22.50
2018-05-27T06:16:07.968Z,22.50
2018-05-27T06:16:46.960Z,22.50
2018-05-27T06:17:46.954Z,22.50
2018-05-27T06:19:07.951Z,22.50
2018-05-27T06:19:46.941Z,22.50
2018-05-27T06:21:07.941Z,28.13
2018-05-27T06:21:46.937Z,28.13
2018-05-27T06:22:46.928Z,28.13
2018-05-27T06:24:07.921Z,28.13
2018-05-27T06:24:46.912Z,28.13
2018-05-27T06:26:07.917Z,28.13
2018-05-27T06:26:46.903Z,28.13
2018-05-27T06:27:46.892Z,28.13
2018-05-27T06:29:07.891Z,28.13
2018-05-27T06:29:46.883Z,28.13
2018-05-27T06:31:07.882Z,33.75
2018-05-27T06:31:46.870Z,33.75
2018-05-27T06:32:46.871Z,33.75
2018-05-27T06:34:07.868Z,28.13
2018-05-27T06:34:46.854Z,33.75
2018-05-27T06:36:07.855Z,28.13
2018-05-27T06:36:46.847Z,28.13
2018-05-27T06:37:46.841Z,28.13
2018-05-27T06:39:07.837Z,22.50
2018-05-27T06:39:46.832Z,16.88
2018-05-27T06:41:07.830Z,16.88
2018-05-27T06:41:46.814Z,22.50
2018-05-27T06:42:46.823Z,28.13
2018-05-27T06:44:07.812Z,28.13
2018-05-27T06:44:46.798Z,28.13
2018-05-27T06:46:07.800Z,16.88
2018-05-27T06:46:46.844Z,22.50
2018-05-27T06:47:46.787Z,33.75
2018-05-27T06:49:07.789Z,28.13
2018-05-27T06:49:46.772Z,28.13
2018-05-27T06:51:07.819Z,28.13
2018-05-27T06:51:46.759Z,33.75
2018-05-27T06:52:46.757Z,33.75
2018-05-27T06:54:07.766Z,33.75
2018-05-27T06:54:46.746Z,33.75
2018-05-27T06:56:07.763Z,33.75
2018-05-27T06:56:46.741Z,33.75
2018-05-27T06:57:46.860Z,22.50
2018-05-27T06:59:07.730Z,22.50
2018-05-27T06:59:46.759Z,22.50
2018-05-27T07:01:07.719Z,28.13
2018-05-27T07:01:46.716Z,33.75
2018-05-27T07:02:46.834Z,28.13
2018-05-27T07:04:07.703Z,33.75
2018-05-27T07:04:46.772Z,33.75
2018-05-27T07:06:07.703Z,33.75
2018-05-27T07:06:46.682Z,39.38
2018-05-27T07:07:46.673Z,28.13
2018-05-27T07:09:07.676Z,28.13
2018-05-27T07:09:46.662Z,28.13
2018-05-27T07:11:07.659Z,28.13
2018-05-27T07:11:46.654Z,28.13
2018-05-27T07:12:46.647Z,39.38
2018-05-27T07:14:07.650Z,28.13
2018-05-27T07:14:46.639Z,33.75
2018-05-27T07:16:07.641Z,28.13
2018-05-27T07:16:46.675Z,28.13
2018-05-27T07:17:46.623Z,28.13
2018-05-27T07:19:07.620Z,28.13
2018-05-27T07:19:46.611Z,28.13
2018-05-27T07:21:07.614Z,28.13
2018-05-27T07:21:46.752Z,33.75
2018-05-27T07:22:46.596Z,33.75
2018-05-27T07:24:07.595Z,33.75
2018-05-27T07:24:46.584Z,33.75
2018-05-27T07:26:07.584Z,33.75
2018-05-27T07:26:46.572Z,28.13
2018-05-27T07:27:46.592Z,28.13
2018-05-27T07:29:07.570Z,28.13
2018-05-27T07:29:46.559Z,28.13
2018-05-27T07:31:07.560Z,28.13
2018-05-27T07:31:46.756Z,28.13
2018-05-27T07:32:46.548Z,28.13
2018-05-27T07:34:07.545Z,28.13
2018-05-27T07:34:46.583Z,28.13
2018-05-27T07:36:07.531Z,28.13
2018-05-27T07:36:46.520Z,45.00
2018-05-27T07:37:46.546Z,39.38
2018-05-27T07:39:07.510Z,28.13
2018-05-27T07:39:46.513Z,28.13
2018-05-27T07:41:07.508Z,61.88
2018-05-27T07:41:46.498Z,45.00
2018-05-27T07:42:46.515Z,61.88
2018-05-27T07:44:07.490Z,61.88
2018-05-27T07:44:46.473Z,61.88
2018-05-27T07:46:07.509Z,50.63
2018-05-27T07:46:46.473Z,67.50
2018-05-27T07:47:46.466Z,67.50
2018-05-27T07:49:07.467Z,67.50
2018-05-27T07:49:46.452Z,67.50
2018-05-27T07:51:07.456Z,73.13
2018-05-27T07:51:46.439Z,73.13
2018-05-27T07:52:46.440Z,61.88
2018-05-27T07:54:07.442Z,39.38
2018-05-27T07:54:46.426Z,33.75
2018-05-27T07:56:07.426Z,33.75
2018-05-27T07:56:46.418Z,33.75
2018-05-27T07:57:46.410Z,33.75
2018-05-27T07:59:07.413Z,33.75
2018-05-27T07:59:46.401Z,33.75
2018-05-27T08:01:07.428Z,33.75
2018-05-27T08:01:46.396Z,45.00
2018-05-27T08:02:46.385Z,33.75
2018-05-27T08:04:07.388Z,73.13
2018-05-27T08:04:46.458Z,67.50
2018-05-27T08:06:07.393Z,78.75
2018-05-27T08:06:46.372Z,39.38
2018-05-27T08:07:46.363Z,50.63
2018-05-27T08:09:07.364Z,61.88
2018-05-27T08:09:46.352Z,45.00
2018-05-27T08:11:07.356Z,61.88
2018-05-27T08:11:46.341Z,50.63
2018-05-27T08:12:46.342Z,67.50
2018-05-27T08:14:07.339Z,61.88
2018-05-27T08:14:46.337Z,50.63
2018-05-27T08:16:07.328Z,45.00
2018-05-27T08:16:46.313Z,56.25
2018-05-27T08:17:46.313Z,45.00
2018-05-27T08:19:07.312Z,39.38
2018-05-27T08:19:46.319Z,39.38
2018-05-27T08:21:07.298Z,39.38
2018-05-27T08:21:46.291Z,50.63
2018-05-27T08:22:46.283Z,39.38
2018-05-27T08:24:07.285Z,45.00
2018-05-27T08:24:46.277Z,73.13
2018-05-27T08:26:07.284Z,45.00
2018-05-27T08:26:46.272Z,45.00
2018-05-27T08:27:46.262Z,45.00
2018-05-27T08:29:07.266Z,45.00
2018-05-27T08:29:46.251Z,73.13
2018-05-27T08:31:07.254Z,61.88
2018-05-27T08:31:46.242Z,78.75
2018-05-27T08:32:46.254Z,84.38
2018-05-27T08:34:07.244Z,50.63
2018-05-27T08:34:46.229Z,39.38
2018-05-27T08:36:07.227Z,50.63
2018-05-27T08:36:46.217Z,45.00
2018-05-27T08:37:46.217Z,61.88
2018-05-27T08:39:07.215Z,56.25
2018-05-27T08:39:46.204Z,73.13
2018-05-27T08:41:07.202Z,90.00
2018-05-27T08:41:46.202Z,95.63
2018-05-27T08:42:46.192Z,90.00
2018-05-27T08:44:07.186Z,95.63
2018-05-27T08:44:46.185Z,90.00
2018-05-27T08:46:07.188Z,90.00
2018-05-27T08:46:46.168Z,90.00
2018-05-27T08:47:46.165Z,84.38
2018-05-27T08:49:07.163Z,90.00
2018-05-27T08:49:46.154Z,90.00
2018-05-27T08:51:07.157Z,90.00
2018-05-27T08:51:46.144Z,90.00
2018-05-27T08:52:46.143Z,84.38
2018-05-27T08:54:07.142Z,90.00
2018-05-27T08:54:46.136Z,73.13
2018-05-27T08:56:07.135Z,56.25
2018-05-27T08:56:46.121Z,67.50
2018-05-27T08:57:46.118Z,90.00
2018-05-27T08:59:07.118Z,90.00
2018-05-27T08:59:46.106Z,90.00
2018-05-27T09:01:07.123Z,84.38
2018-05-27T09:01:46.099Z,95.63
2018-05-27T09:02:46.095Z,95.63
2018-05-27T09:04:07.097Z,95.63
2018-05-27T09:04:46.081Z,67.50
2018-05-27T09:06:07.081Z,73.13
2018-05-27T09:06:46.081Z,73.13
2018-05-27T09:07:46.072Z,95.63
2018-05-27T09:09:07.070Z,95.63
2018-05-27T09:09:46.062Z,95.63
2018-05-27T09:11:07.060Z,95.63
2018-05-27T09:11:46.054Z,95.63
2018-05-27T09:12:46.048Z,95.63
2018-05-27T09:14:07.052Z,95.63
2018-05-27T09:14:46.039Z,95.63
2018-05-27T09:16:07.040Z,95.63
2018-05-27T09:16:46.027Z,95.63
2018-05-27T09:17:46.030Z,95.63
2018-05-27T09:19:07.028Z,95.63
2018-05-27T09:19:46.021Z,95.63
2018-05-27T09:21:07.020Z,95.63
2018-05-27T09:21:46.010Z,95.63
2018-05-27T09:22:45.999Z,95.63
2018-05-27T09:24:07.018Z,95.63
2018-05-27T09:24:46.017Z,95.63
2018-05-27T09:26:06.996Z,95.63
2018-05-27T09:26:45.986Z,95.63
2018-05-27T09:27:45.984Z,95.63
2018-05-27T09:29:06.991Z,95.63
2018-05-27T09:29:45.980Z,95.63
2018-05-27T09:31:06.980Z,95.63
2018-05-27T09:31:45.973Z,95.63
2018-05-27T09:32:45.963Z,95.63
2018-05-27T09:34:06.969Z,101.25
2018-05-27T09:34:45.963Z,101.25
2018-05-27T09:36:06.962Z,101.25
2018-05-27T09:36:45.943Z,101.25
2018-05-27T09:37:45.942Z,101.25
2018-05-27T09:39:06.948Z,106.88
2018-05-27T09:39:45.942Z,106.88
2018-05-27T09:41:06.940Z,90.00
2018-05-27T09:41:46.759Z,90.00
2018-05-27T09:42:45.940Z,112.50
2018-05-27T09:44:06.930Z,106.88
2018-05-27T09:44:45.917Z,56.25
2018-05-27T09:46:06.915Z,101.25
2018-05-27T09:46:45.907Z,78.75
2018-05-27T09:47:45.901Z,61.88
2018-05-27T09:49:06.908Z,50.63
2018-05-27T09:49:45.902Z,56.25
2018-05-27T09:51:06.934Z,50.63
2018-05-27T09:51:45.881Z,67.50
2018-05-27T09:52:45.874Z,61.88
2018-05-27T09:54:06.900Z,67.50
2018-05-27T09:54:45.878Z,106.88
2018-05-27T09:56:06.887Z,106.88
2018-05-27T09:56:45.858Z,106.88
2018-05-27T09:57:45.904Z,106.88
2018-05-27T09:59:06.860Z,101.25
2018-05-27T09:59:45.846Z,84.38
2018-05-27T10:01:06.857Z,101.25
2018-05-27T10:01:45.844Z,84.38
2018-05-27T10:02:45.834Z,45.00
2018-05-27T10:04:06.847Z,61.88
2018-05-27T10:04:45.823Z,78.75
2018-05-27T10:06:06.838Z,95.63
2018-05-27T10:06:45.820Z,95.63
2018-05-27T10:07:45.826Z,73.13
2018-05-27T10:09:06.827Z,95.63
2018-05-27T10:09:45.808Z,95.63
2018-05-27T10:11:06.810Z,90.00
2018-05-27T10:11:45.856Z,90.00
2018-05-27T10:12:45.810Z,90.00
2018-05-27T10:14:06.802Z,90.00
2018-05-27T10:14:45.793Z,90.00
2018-05-27T10:16:06.794Z,90.00
2018-05-27T10:16:45.781Z,90.00
2018-05-27T10:17:45.774Z,90.00
2018-05-27T10:19:06.784Z,90.00
2018-05-27T10:19:45.765Z,90.00
2018-05-27T10:21:06.768Z,95.63
2018-05-27T10:21:45.768Z,90.00
2018-05-27T10:22:45.764Z,84.38
2018-05-27T10:24:06.772Z,78.75
2018-05-27T10:24:45.749Z,84.38
2018-05-27T10:26:06.816Z,78.75
2018-05-27T10:26:45.738Z,73.13
2018-05-27T10:27:45.740Z,61.88
2018-05-27T10:29:06.738Z,67.50
2018-05-27T10:29:45.729Z,73.13
2018-05-27T10:31:06.737Z,78.75
2018-05-27T10:31:45.719Z,78.75
2018-05-27T10:32:45.723Z,84.38
2018-05-27T10:34:06.726Z,95.63
2018-05-27T10:34:45.709Z,95.63
2018-05-27T10:36:06.707Z,90.00
2018-05-27T10:36:45.699Z,95.63
2018-05-27T10:37:45.748Z,84.38
2018-05-27T10:39:06.758Z,73.13
2018-05-27T10:39:45.741Z,61.88
2018-05-27T10:41:06.696Z,56.25
2018-05-27T10:41:45.677Z,50.63
2018-05-27T10:42:45.693Z,45.00
2018-05-27T10:44:06.682Z,39.38
2018-05-27T10:44:45.676Z,39.38
2018-05-27T10:46:06.677Z,45.00
2018-05-27T10:46:45.656Z,45.00
2018-05-27T10:47:45.653Z,50.63
2018-05-27T10:49:06.663Z,45.00
2018-05-27T10:49:45.649Z,56.25
2018-05-27T10:51:06.659Z,61.88
2018-05-27T10:51:45.641Z,56.25
2018-05-27T10:52:45.636Z,56.25
2018-05-27T10:54:06.646Z,56.25
2018-05-27T10:54:45.628Z,50.63
2018-05-27T10:56:06.636Z,56.25
2018-05-27T10:56:45.634Z,61.88
2018-05-27T10:57:45.619Z,73.13
2018-05-27T10:59:06.622Z,67.50
2018-05-27T10:59:45.619Z,67.50
2018-05-27T11:01:06.614Z,73.13
2018-05-27T11:01:45.597Z,84.38
2018-05-27T11:02:45.594Z,84.38
2018-05-27T11:04:06.603Z,84.38
2018-05-27T11:04:45.589Z,78.75
2018-05-27T11:06:06.597Z,78.75
2018-05-27T11:06:45.581Z,78.75
2018-05-27T11:07:45.580Z,78.75
2018-05-27T11:09:06.580Z,78.75
2018-05-27T11:09:45.569Z,78.75
2018-05-27T11:11:07.320Z,78.75
2018-05-27T11:11:45.561Z,73.13
2018-05-27T11:12:45.560Z,33.75
2018-05-27T11:14:06.563Z,73.13
2018-05-27T11:14:45.870Z,73.13
2018-05-27T11:16:06.564Z,73.13
2018-05-27T11:16:45.588Z,73.13
2018-05-27T11:17:45.540Z,73.13
2018-05-27T11:19:06.545Z,73.13
2018-05-27T11:19:45.526Z,73.13
2018-05-27T11:21:06.536Z,67.50
2018-05-27T11:21:45.525Z,28.13
2018-05-27T11:22:45.532Z,28.13
2018-05-27T11:24:06.525Z,28.13
2018-05-27T11:24:45.512Z,28.13
2018-05-27T11:26:06.520Z,39.38
2018-05-27T11:26:45.504Z,28.13
2018-05-27T11:27:45.542Z,28.13
2018-05-27T11:29:06.502Z,67.50
2018-05-27T11:29:45.520Z,56.25
2018-05-27T11:31:06.493Z,28.13
2018-05-27T11:31:45.486Z,39.38
2018-05-27T11:32:45.571Z,61.88
2018-05-27T11:34:06.543Z,61.88
2018-05-27T11:34:45.501Z,50.63
2018-05-27T11:36:06.480Z,50.63
2018-05-27T11:36:45.464Z,61.88
2018-05-27T11:37:46.340Z,56.25
2018-05-27T11:39:06.471Z,61.88
2018-05-27T11:39:45.453Z,61.88
2018-05-27T11:41:06.464Z,61.88
2018-05-27T11:41:45.468Z,61.88
2018-05-27T11:42:45.438Z,61.88
2018-05-27T11:44:06.454Z,61.88
2018-05-27T11:44:45.432Z,61.88
2018-05-27T11:46:06.440Z,61.88
2018-05-27T11:46:45.431Z,61.88
2018-05-27T11:47:45.423Z,56.25
2018-05-27T11:49:06.443Z,56.25
2018-05-27T11:49:45.410Z,56.25
2018-05-27T11:51:06.415Z,56.25
2018-05-27T11:51:45.473Z,56.25
2018-05-27T11:52:45.402Z,56.25
2018-05-27T11:54:06.409Z,50.63
2018-05-27T11:54:45.391Z,50.63
2018-05-27T11:56:06.394Z,50.63
2018-05-27T11:56:45.382Z,50.63
2018-05-27T11:57:45.388Z,50.63
2018-05-27T11:59:06.391Z,50.63
2018-05-27T11:59:45.372Z,22.50
2018-05-27T12:01:06.384Z,28.13
2018-05-27T12:01:45.404Z,22.50
2018-05-27T12:02:45.364Z,16.88
2018-05-27T12:04:06.365Z,16.88
2018-05-27T12:04:45.356Z,16.88
2018-05-27T12:06:06.364Z,16.88
2018-05-27T12:06:45.349Z,16.88
2018-05-27T12:07:45.347Z,16.88
2018-05-27T12:09:06.458Z,16.88
2018-05-27T12:09:45.620Z,16.88
2018-05-27T12:11:06.341Z,16.88
2018-05-27T12:11:45.333Z,33.75
2018-05-27T12:12:45.332Z,33.75
2018-05-27T12:14:06.330Z,56.25
2018-05-27T12:14:45.315Z,56.25
2018-05-27T12:16:06.318Z,61.88
2018-05-27T12:16:45.355Z,56.25
2018-05-27T12:17:45.310Z,45.00
2018-05-27T12:19:06.311Z,61.88
2018-05-27T12:19:45.297Z,67.50
2018-05-27T12:21:06.300Z,67.50
2018-05-27T12:21:45.288Z,61.88
2018-05-27T12:22:45.296Z,61.88
2018-05-27T12:24:06.299Z,61.88
2018-05-27T12:24:45.280Z,61.88
2018-05-27T12:26:06.278Z,56.25
2018-05-27T12:26:45.273Z,67.50
2018-05-27T12:27:45.266Z,106.88
2018-05-27T12:29:06.265Z,106.88
2018-05-27T12:29:45.292Z,101.25
2018-05-27T12:31:06.264Z,56.25
2018-05-27T12:31:45.254Z,56.25
2018-05-27T12:32:45.251Z,56.25
2018-05-27T12:34:06.260Z,56.25
2018-05-27T12:34:45.247Z,56.25
2018-05-27T12:36:06.240Z,56.25
2018-05-27T12:36:45.240Z,45.00
2018-05-27T12:37:45.235Z,45.00
2018-05-27T12:39:06.242Z,39.38
2018-05-27T12:39:45.232Z,39.38
2018-05-27T12:41:06.223Z,39.38
2018-05-27T12:41:45.216Z,39.38
2018-05-27T12:42:45.224Z,45.00
2018-05-27T12:44:06.216Z,39.38
2018-05-27T12:44:45.206Z,39.38
2018-05-27T12:46:06.203Z,45.00
2018-05-27T12:46:45.190Z,45.00
2018-05-27T12:47:45.188Z,45.00
2018-05-27T12:49:06.195Z,45.00
2018-05-27T12:49:45.185Z,50.63
2018-05-27T12:51:06.212Z,56.25
2018-05-27T12:51:45.172Z,56.25
2018-05-27T12:52:45.176Z,50.63
2018-05-27T12:54:06.177Z,50.63
2018-05-27T12:54:45.163Z,50.63
2018-05-27T12:56:06.167Z,39.38
2018-05-27T12:56:45.158Z,39.38
2018-05-27T12:57:45.147Z,39.38
2018-05-27T12:59:06.154Z,39.38
2018-05-27T12:59:45.141Z,39.38
2018-05-27T13:01:06.149Z,39.38
2018-05-27T13:01:45.137Z,39.38
2018-05-27T13:02:45.131Z,39.38
2018-05-27T13:04:06.130Z,39.38